Barking Sands Airport Kekaha US
ICAO: PHBK
IATA:
Category: Medium
Scheduled Services:

Elevation: 23 ft
TransAlt. 18000 ft.

Airport Communications:
HONOLULU CNTR:126.5
RANGE OUTRIDER:32.285
TWR:126.2
UNICOM:122.8

PHBK Zoom In..

Runways:

(A) RW 16 length 6002 ft width 146 ft
---- / hdg 160

(B) RW 34 length 6002 ft width 146 ft
---- / hdg 340

Location; PHBK
Day. 24 / Time. 00.56 Zulu
* Altimeter: 29.91
* Temperature: 25° c. 77°f.
* Wind from: 300° Speed 06 kn.
Dewpoint: 19° c.
Visibility: 10 Statute Miles.
Clouds: Clear (automated report).

PHBK 240056Z AUTO 30006KT 10SM CLR 25/19 A2991 RMK AO2 SLP131 T02500194 $


Wind From 300°
Speed 06 kn.

YouTube Music Video
 
jpsmedia.com for Web Design  worldairports.se 2018   terms of use